<?xml version="1.0" encoding="UTF-8" standalone="no" ?>
<gpx xmlns="http://www.topografix.com/GPX/1/1" xmlns:xsi="http://www.w3.org/2001/XMLSchema-instance" xsi:schemaLocation="http://www.topografix.com/GPX/1/1 http://www.topografix.com/GPX/1/1/gpx.xsd" version="1.1" creator="VisuGPX - https://www.visugpx.com">
  <metadata>
    <name>Chateau Chalo Menetru</name>
    <desc><![CDATA[Chateau Chalo Menetru Vignes Forêts Champs]]></desc>
  </metadata>
  <wpt lat="46.75534" lon="5.6117">
    <ele>254</ele>
    <name><![CDATA[Mairie de Voiteur]]></name>
  </wpt>
  <wpt lat="46.75093" lon="5.61347">
    <ele>263</ele>
    <name><![CDATA[Château Charrin]]></name>
  </wpt>
  <wpt lat="46.74357" lon="5.62467">
    <ele>266</ele>
    <name><![CDATA[Pont à l'entrée de Nevy-sur-Seille]]></name>
  </wpt>
  <wpt lat="46.75386" lon="5.62831">
    <ele>455</ele>
    <name><![CDATA[Château-Chalon]]></name>
  </wpt>
  <wpt lat="46.75693" lon="5.63143">
    <ele>436</ele>
    <name><![CDATA[Voie romaine après la traversée de la route]]></name>
  </wpt>
  <wpt lat="46.76785" lon="5.62591">
    <ele>464</ele>
    <name><![CDATA[Croix de Beaumont]]></name>
  </wpt>
  <wpt lat="46.76715" lon="5.62143">
    <ele>380</ele>
    <name><![CDATA[Église]]></name>
  </wpt>
  <wpt lat="46.76569" lon="5.61856">
    <ele>360</ele>
    <name><![CDATA[Chemin montant]]></name>
  </wpt>
  <wpt lat="46.75803" lon="5.61569">
    <ele>253</ele>
    <name><![CDATA[À droite vers le centre de Voiteur]]></name>
  </wpt>
  <wpt lat="46.75539" lon="5.6117">
    <ele>254</ele>
    <name><![CDATA[Mairie de Voiteur]]></name>
  </wpt>
  <trk>
    <name><![CDATA[Château-Chalon]]></name>
    <trkseg>
      <trkpt lat="46.75534" lon="5.6117">
        <ele>254</ele>
        <time>2018-09-08T13:48:42+02:00</time>
      </trkpt>
      <trkpt lat="46.75359" lon="5.6093">
        <ele>261</ele>
        <time>2018-09-08T13:48:47+02:00</time>
      </trkpt>
      <trkpt lat="46.75273" lon="5.60972">
        <ele>263</ele>
        <time>2018-09-08T13:48:52+02:00</time>
      </trkpt>
      <trkpt lat="46.75208" lon="5.6106">
        <ele>264</ele>
        <time>2018-09-08T13:48:57+02:00</time>
      </trkpt>
      <trkpt lat="46.75093" lon="5.61347">
        <ele>263</ele>
        <time>2018-09-08T13:49:02+02:00</time>
      </trkpt>
      <trkpt lat="46.75047" lon="5.614">
        <ele>263</ele>
        <time>2018-09-08T13:49:07+02:00</time>
      </trkpt>
      <trkpt lat="46.74987" lon="5.6141">
        <ele>266</ele>
        <time>2018-09-08T13:49:12+02:00</time>
      </trkpt>
      <trkpt lat="46.74887" lon="5.61465">
        <ele>277</ele>
        <time>2018-09-08T13:49:17+02:00</time>
      </trkpt>
      <trkpt lat="46.74853" lon="5.61567">
        <ele>283</ele>
        <time>2018-09-08T13:49:22+02:00</time>
      </trkpt>
      <trkpt lat="46.74745" lon="5.61676">
        <ele>298</ele>
        <time>2018-09-08T13:49:27+02:00</time>
      </trkpt>
      <trkpt lat="46.74688" lon="5.61689">
        <ele>305</ele>
        <time>2018-09-08T13:49:32+02:00</time>
      </trkpt>
      <trkpt lat="46.74522" lon="5.61886">
        <ele>300</ele>
        <time>2018-09-08T13:49:37+02:00</time>
      </trkpt>
      <trkpt lat="46.74563" lon="5.6197">
        <ele>281</ele>
        <time>2018-09-08T13:49:42+02:00</time>
      </trkpt>
      <trkpt lat="46.74475" lon="5.62129">
        <ele>272</ele>
        <time>2018-09-08T13:49:47+02:00</time>
      </trkpt>
      <trkpt lat="46.74408" lon="5.62223">
        <ele>274</ele>
        <time>2018-09-08T13:49:52+02:00</time>
      </trkpt>
      <trkpt lat="46.74405" lon="5.6227">
        <ele>272</ele>
        <time>2018-09-08T13:49:57+02:00</time>
      </trkpt>
      <trkpt lat="46.74389" lon="5.62314">
        <ele>271</ele>
        <time>2018-09-08T13:50:02+02:00</time>
      </trkpt>
      <trkpt lat="46.74376" lon="5.62411">
        <ele>266</ele>
        <time>2018-09-08T13:50:07+02:00</time>
      </trkpt>
      <trkpt lat="46.74357" lon="5.62467">
        <ele>266</ele>
        <time>2018-09-08T13:50:12+02:00</time>
      </trkpt>
      <trkpt lat="46.74382" lon="5.62543">
        <ele>264</ele>
        <time>2018-09-08T13:50:17+02:00</time>
      </trkpt>
      <trkpt lat="46.74378" lon="5.62614">
        <ele>264</ele>
        <time>2018-09-08T13:50:22+02:00</time>
      </trkpt>
      <trkpt lat="46.74425" lon="5.62637">
        <ele>265</ele>
        <time>2018-09-08T13:50:27+02:00</time>
      </trkpt>
      <trkpt lat="46.74481" lon="5.6264">
        <ele>267</ele>
        <time>2018-09-08T13:50:32+02:00</time>
      </trkpt>
      <trkpt lat="46.74499" lon="5.62689">
        <ele>271</ele>
        <time>2018-09-08T13:50:37+02:00</time>
      </trkpt>
      <trkpt lat="46.74554" lon="5.62747">
        <ele>283</ele>
        <time>2018-09-08T13:50:42+02:00</time>
      </trkpt>
      <trkpt lat="46.74621" lon="5.62757">
        <ele>294</ele>
        <time>2018-09-08T13:50:47+02:00</time>
      </trkpt>
      <trkpt lat="46.74655" lon="5.62812">
        <ele>310</ele>
        <time>2018-09-08T13:50:52+02:00</time>
      </trkpt>
      <trkpt lat="46.7473" lon="5.62768">
        <ele>316</ele>
        <time>2018-09-08T13:50:57+02:00</time>
      </trkpt>
      <trkpt lat="46.74756" lon="5.62728">
        <ele>313</ele>
        <time>2018-09-08T13:51:02+02:00</time>
      </trkpt>
      <trkpt lat="46.74815" lon="5.62755">
        <ele>323</ele>
        <time>2018-09-08T13:51:07+02:00</time>
      </trkpt>
      <trkpt lat="46.74865" lon="5.62726">
        <ele>318</ele>
        <time>2018-09-08T13:51:12+02:00</time>
      </trkpt>
      <trkpt lat="46.75013" lon="5.62837">
        <ele>337</ele>
        <time>2018-09-08T13:51:17+02:00</time>
      </trkpt>
      <trkpt lat="46.75029" lon="5.62882">
        <ele>348</ele>
        <time>2018-09-08T13:51:22+02:00</time>
      </trkpt>
      <trkpt lat="46.75121" lon="5.62921">
        <ele>360</ele>
        <time>2018-09-08T13:51:27+02:00</time>
      </trkpt>
      <trkpt lat="46.7516" lon="5.62942">
        <ele>368</ele>
        <time>2018-09-08T13:51:32+02:00</time>
      </trkpt>
      <trkpt lat="46.75237" lon="5.63036">
        <ele>388</ele>
        <time>2018-09-08T13:51:37+02:00</time>
      </trkpt>
      <trkpt lat="46.75301" lon="5.63157">
        <ele>410</ele>
        <time>2018-09-08T13:51:42+02:00</time>
      </trkpt>
      <trkpt lat="46.75305" lon="5.63314">
        <ele>437</ele>
        <time>2018-09-08T13:51:47+02:00</time>
      </trkpt>
      <trkpt lat="46.75336" lon="5.63415">
        <ele>447</ele>
        <time>2018-09-08T13:51:52+02:00</time>
      </trkpt>
      <trkpt lat="46.75373" lon="5.63455">
        <ele>455</ele>
        <time>2018-09-08T13:51:57+02:00</time>
      </trkpt>
      <trkpt lat="46.75375" lon="5.63389">
        <ele>448</ele>
        <time>2018-09-08T13:52:02+02:00</time>
      </trkpt>
      <trkpt lat="46.75415" lon="5.63267">
        <ele>444</ele>
        <time>2018-09-08T13:52:07+02:00</time>
      </trkpt>
      <trkpt lat="46.75425" lon="5.63188">
        <ele>441</ele>
        <time>2018-09-08T13:52:12+02:00</time>
      </trkpt>
      <trkpt lat="46.75406" lon="5.63042">
        <ele>444</ele>
        <time>2018-09-08T13:52:17+02:00</time>
      </trkpt>
      <trkpt lat="46.75411" lon="5.62972">
        <ele>453</ele>
        <time>2018-09-08T13:52:22+02:00</time>
      </trkpt>
      <trkpt lat="46.75386" lon="5.62831">
        <ele>455</ele>
        <time>2018-09-08T13:52:27+02:00</time>
      </trkpt>
      <trkpt lat="46.75357" lon="5.62771">
        <ele>449</ele>
        <time>2018-09-08T13:52:32+02:00</time>
      </trkpt>
      <trkpt lat="46.75384" lon="5.62674">
        <ele>444</ele>
        <time>2018-09-08T13:52:37+02:00</time>
      </trkpt>
      <trkpt lat="46.75416" lon="5.62648">
        <ele>449</ele>
        <time>2018-09-08T13:52:42+02:00</time>
      </trkpt>
      <trkpt lat="46.75447" lon="5.62567">
        <ele>442</ele>
        <time>2018-09-08T13:52:47+02:00</time>
      </trkpt>
      <trkpt lat="46.75423" lon="5.62486">
        <ele>441</ele>
        <time>2018-09-08T13:52:52+02:00</time>
      </trkpt>
      <trkpt lat="46.75366" lon="5.62478">
        <ele>423</ele>
        <time>2018-09-08T13:52:57+02:00</time>
      </trkpt>
      <trkpt lat="46.75371" lon="5.62434">
        <ele>425</ele>
        <time>2018-09-08T13:53:02+02:00</time>
      </trkpt>
      <trkpt lat="46.75432" lon="5.62428">
        <ele>439</ele>
        <time>2018-09-08T13:53:07+02:00</time>
      </trkpt>
      <trkpt lat="46.75447" lon="5.62387">
        <ele>431</ele>
        <time>2018-09-08T13:53:12+02:00</time>
      </trkpt>
      <trkpt lat="46.7549" lon="5.62381">
        <ele>433</ele>
        <time>2018-09-08T13:53:17+02:00</time>
      </trkpt>
      <trkpt lat="46.75524" lon="5.624">
        <ele>436</ele>
        <time>2018-09-08T13:53:22+02:00</time>
      </trkpt>
      <trkpt lat="46.75587" lon="5.62449">
        <ele>439</ele>
        <time>2018-09-08T13:53:27+02:00</time>
      </trkpt>
      <trkpt lat="46.75644" lon="5.62507">
        <ele>434</ele>
        <time>2018-09-08T13:53:32+02:00</time>
      </trkpt>
      <trkpt lat="46.75637" lon="5.62608">
        <ele>443</ele>
        <time>2018-09-08T13:53:37+02:00</time>
      </trkpt>
      <trkpt lat="46.75716" lon="5.62689">
        <ele>421</ele>
        <time>2018-09-08T13:53:42+02:00</time>
      </trkpt>
      <trkpt lat="46.75685" lon="5.62713">
        <ele>424</ele>
        <time>2018-09-08T13:53:47+02:00</time>
      </trkpt>
      <trkpt lat="46.75606" lon="5.62697">
        <ele>440</ele>
        <time>2018-09-08T13:53:52+02:00</time>
      </trkpt>
      <trkpt lat="46.75576" lon="5.62742">
        <ele>443</ele>
        <time>2018-09-08T13:53:57+02:00</time>
      </trkpt>
      <trkpt lat="46.75601" lon="5.62893">
        <ele>433</ele>
        <time>2018-09-08T13:54:02+02:00</time>
      </trkpt>
      <trkpt lat="46.75637" lon="5.62945">
        <ele>424</ele>
        <time>2018-09-08T13:54:07+02:00</time>
      </trkpt>
      <trkpt lat="46.75676" lon="5.62976">
        <ele>414</ele>
        <time>2018-09-08T13:54:12+02:00</time>
      </trkpt>
      <trkpt lat="46.75693" lon="5.63143">
        <ele>436</ele>
        <time>2018-09-08T13:54:17+02:00</time>
      </trkpt>
      <trkpt lat="46.75724" lon="5.6324">
        <ele>443</ele>
        <time>2018-09-08T13:54:22+02:00</time>
      </trkpt>
      <trkpt lat="46.75821" lon="5.63314">
        <ele>427</ele>
        <time>2018-09-08T13:54:27+02:00</time>
      </trkpt>
      <trkpt lat="46.75925" lon="5.63475">
        <ele>447</ele>
        <time>2018-09-08T13:54:32+02:00</time>
      </trkpt>
      <trkpt lat="46.761" lon="5.6365">
        <ele>453</ele>
        <time>2018-09-08T13:54:37+02:00</time>
      </trkpt>
      <trkpt lat="46.76142" lon="5.63741">
        <ele>460</ele>
        <time>2018-09-08T13:54:42+02:00</time>
      </trkpt>
      <trkpt lat="46.76203" lon="5.63827">
        <ele>463</ele>
        <time>2018-09-08T13:54:47+02:00</time>
      </trkpt>
      <trkpt lat="46.76214" lon="5.63952">
        <ele>471</ele>
        <time>2018-09-08T13:54:52+02:00</time>
      </trkpt>
      <trkpt lat="46.76282" lon="5.6407">
        <ele>474</ele>
        <time>2018-09-08T13:54:57+02:00</time>
      </trkpt>
      <trkpt lat="46.76373" lon="5.64015">
        <ele>477</ele>
        <time>2018-09-08T13:55:02+02:00</time>
      </trkpt>
      <trkpt lat="46.7649" lon="5.63997">
        <ele>476</ele>
        <time>2018-09-08T13:55:07+02:00</time>
      </trkpt>
      <trkpt lat="46.76664" lon="5.64049">
        <ele>489</ele>
        <time>2018-09-08T13:55:12+02:00</time>
      </trkpt>
      <trkpt lat="46.76762" lon="5.64096">
        <ele>489</ele>
        <time>2018-09-08T13:55:17+02:00</time>
      </trkpt>
      <trkpt lat="46.76893" lon="5.64098">
        <ele>489</ele>
        <time>2018-09-08T13:55:22+02:00</time>
      </trkpt>
      <trkpt lat="46.76966" lon="5.63835">
        <ele>473</ele>
        <time>2018-09-08T13:55:27+02:00</time>
      </trkpt>
      <trkpt lat="46.76922" lon="5.63746">
        <ele>463</ele>
        <time>2018-09-08T13:55:32+02:00</time>
      </trkpt>
      <trkpt lat="46.76877" lon="5.63652">
        <ele>449</ele>
        <time>2018-09-08T13:55:37+02:00</time>
      </trkpt>
      <trkpt lat="46.76877" lon="5.63569">
        <ele>446</ele>
        <time>2018-09-08T13:55:42+02:00</time>
      </trkpt>
      <trkpt lat="46.769" lon="5.63519">
        <ele>458</ele>
        <time>2018-09-08T13:55:47+02:00</time>
      </trkpt>
      <trkpt lat="46.76911" lon="5.63437">
        <ele>467</ele>
        <time>2018-09-08T13:55:52+02:00</time>
      </trkpt>
      <trkpt lat="46.76922" lon="5.63408">
        <ele>473</ele>
        <time>2018-09-08T13:55:57+02:00</time>
      </trkpt>
      <trkpt lat="46.76857" lon="5.63249">
        <ele>475</ele>
        <time>2018-09-08T13:56:02+02:00</time>
      </trkpt>
      <trkpt lat="46.76794" lon="5.63092">
        <ele>478</ele>
        <time>2018-09-08T13:56:07+02:00</time>
      </trkpt>
      <trkpt lat="46.76864" lon="5.62938">
        <ele>487</ele>
        <time>2018-09-08T13:56:12+02:00</time>
      </trkpt>
      <trkpt lat="46.76781" lon="5.62865">
        <ele>485</ele>
        <time>2018-09-08T13:56:17+02:00</time>
      </trkpt>
      <trkpt lat="46.7671" lon="5.62769">
        <ele>466</ele>
        <time>2018-09-08T13:56:22+02:00</time>
      </trkpt>
      <trkpt lat="46.76785" lon="5.62591">
        <ele>464</ele>
        <time>2018-09-08T13:56:27+02:00</time>
      </trkpt>
      <trkpt lat="46.76851" lon="5.62612">
        <ele>474</ele>
        <time>2018-09-08T13:56:32+02:00</time>
      </trkpt>
      <trkpt lat="46.76947" lon="5.62675">
        <ele>477</ele>
        <time>2018-09-08T13:56:37+02:00</time>
      </trkpt>
      <trkpt lat="46.76977" lon="5.62688">
        <ele>477</ele>
        <time>2018-09-08T13:56:42+02:00</time>
      </trkpt>
      <trkpt lat="46.77011" lon="5.62656">
        <ele>469</ele>
        <time>2018-09-08T13:56:47+02:00</time>
      </trkpt>
      <trkpt lat="46.76963" lon="5.6257">
        <ele>448</ele>
        <time>2018-09-08T13:56:52+02:00</time>
      </trkpt>
      <trkpt lat="46.76959" lon="5.62516">
        <ele>432</ele>
        <time>2018-09-08T13:56:57+02:00</time>
      </trkpt>
      <trkpt lat="46.76909" lon="5.6244">
        <ele>419</ele>
        <time>2018-09-08T13:57:02+02:00</time>
      </trkpt>
      <trkpt lat="46.76882" lon="5.6238">
        <ele>411</ele>
        <time>2018-09-08T13:57:07+02:00</time>
      </trkpt>
      <trkpt lat="46.76893" lon="5.62289">
        <ele>400</ele>
        <time>2018-09-08T13:57:12+02:00</time>
      </trkpt>
      <trkpt lat="46.76842" lon="5.62171">
        <ele>388</ele>
        <time>2018-09-08T13:57:17+02:00</time>
      </trkpt>
      <trkpt lat="46.76796" lon="5.62122">
        <ele>382</ele>
        <time>2018-09-08T13:57:22+02:00</time>
      </trkpt>
      <trkpt lat="46.76715" lon="5.62143">
        <ele>380</ele>
        <time>2018-09-08T13:57:27+02:00</time>
      </trkpt>
      <trkpt lat="46.76731" lon="5.62028">
        <ele>372</ele>
        <time>2018-09-08T13:57:32+02:00</time>
      </trkpt>
      <trkpt lat="46.76598" lon="5.61939">
        <ele>362</ele>
        <time>2018-09-08T13:57:37+02:00</time>
      </trkpt>
      <trkpt lat="46.76569" lon="5.619">
        <ele>360</ele>
        <time>2018-09-08T13:57:42+02:00</time>
      </trkpt>
      <trkpt lat="46.76569" lon="5.61856">
        <ele>360</ele>
        <time>2018-09-08T13:57:47+02:00</time>
      </trkpt>
      <trkpt lat="46.76476" lon="5.61777">
        <ele>355</ele>
        <time>2018-09-08T13:57:52+02:00</time>
      </trkpt>
      <trkpt lat="46.76427" lon="5.61688">
        <ele>342</ele>
        <time>2018-09-08T13:57:57+02:00</time>
      </trkpt>
      <trkpt lat="46.76334" lon="5.61635">
        <ele>324</ele>
        <time>2018-09-08T13:58:02+02:00</time>
      </trkpt>
      <trkpt lat="46.7629" lon="5.61573">
        <ele>307</ele>
        <time>2018-09-08T13:58:07+02:00</time>
      </trkpt>
      <trkpt lat="46.76278" lon="5.61484">
        <ele>298</ele>
        <time>2018-09-08T13:58:12+02:00</time>
      </trkpt>
      <trkpt lat="46.76244" lon="5.61432">
        <ele>289</ele>
        <time>2018-09-08T13:58:17+02:00</time>
      </trkpt>
      <trkpt lat="46.76201" lon="5.61403">
        <ele>281</ele>
        <time>2018-09-08T13:58:22+02:00</time>
      </trkpt>
      <trkpt lat="46.76123" lon="5.61365">
        <ele>269</ele>
        <time>2018-09-08T13:58:27+02:00</time>
      </trkpt>
      <trkpt lat="46.76053" lon="5.61357">
        <ele>258</ele>
        <time>2018-09-08T13:58:32+02:00</time>
      </trkpt>
      <trkpt lat="46.76003" lon="5.61491">
        <ele>253</ele>
        <time>2018-09-08T13:58:37+02:00</time>
      </trkpt>
      <trkpt lat="46.75952" lon="5.61496">
        <ele>251</ele>
        <time>2018-09-08T13:58:42+02:00</time>
      </trkpt>
      <trkpt lat="46.75803" lon="5.61569">
        <ele>253</ele>
        <time>2018-09-08T13:58:47+02:00</time>
      </trkpt>
      <trkpt lat="46.75539" lon="5.6117">
        <ele>254</ele>
        <time>2018-09-08T13:58:52+02:00</time>
      </trkpt>
    </trkseg>
  </trk>
</gpx>